sensor_id;sensor_type;location;lat;lon;timestamp;P1;durP1;ratioP1;P2;durP2;ratioP2
55465;SDS011;41329;41.594;23.810;2022-07-29T00:01:34;12.98;;;12.27;;
55465;SDS011;41329;41.594;23.810;2022-07-29T00:04:00;13.40;;;12.70;;
55465;SDS011;41329;41.594;23.810;2022-07-29T00:06:25;13.07;;;12.48;;
55465;SDS011;41329;41.594;23.810;2022-07-29T00:08:51;13.35;;;12.65;;
55465;SDS011;41329;41.594;23.810;2022-07-29T00:11:16;13.60;;;12.77;;
55465;SDS011;41329;41.594;23.810;2022-07-29T00:13:42;13.25;;;12.38;;
55465;SDS011;41329;41.594;23.810;2022-07-29T00:16:07;13.48;;;12.68;;
55465;SDS011;41329;41.594;23.810;2022-07-29T00:18:33;13.60;;;12.98;;
55465;SDS011;41329;41.594;23.810;2022-07-29T00:20:58;13.20;;;12.57;;
55465;SDS011;41329;41.594;23.810;2022-07-29T00:23:24;12.43;;;11.77;;
55465;SDS011;41329;41.594;23.810;2022-07-29T00:25:49;13.23;;;12.38;;
55465;SDS011;41329;41.594;23.810;2022-07-29T00:28:15;12.80;;;12.13;;
55465;SDS011;41329;41.594;23.810;2022-07-29T00:30:40;12.02;;;11.40;;
55465;SDS011;41329;41.594;23.810;2022-07-29T00:33:08;12.95;;;12.35;;
55465;SDS011;41329;41.594;23.810;2022-07-29T00:35:33;12.30;;;11.70;;
55465;SDS011;41329;41.594;23.810;2022-07-29T00:38:12;12.57;;;11.98;;
55465;SDS011;41329;41.594;23.810;2022-07-29T00:40:38;12.25;;;11.73;;
55465;SDS011;41329;41.594;23.810;2022-07-29T00:43:04;12.75;;;12.15;;
55465;SDS011;41329;41.594;23.810;2022-07-29T00:45:30;12.70;;;12.05;;
55465;SDS011;41329;41.594;23.810;2022-07-29T00:47:55;13.55;;;12.68;;
55465;SDS011;41329;41.594;23.810;2022-07-29T00:50:21;12.13;;;11.32;;
55465;SDS011;41329;41.594;23.810;2022-07-29T00:52:48;13.07;;;11.98;;
55465;SDS011;41329;41.594;23.810;2022-07-29T00:55:15;13.30;;;12.45;;
55465;SDS011;41329;41.594;23.810;2022-07-29T00:57:41;12.32;;;11.73;;
55465;SDS011;41329;41.594;23.810;2022-07-29T01:00:09;11.82;;;11.23;;
55465;SDS011;41329;41.594;23.810;2022-07-29T01:02:37;11.90;;;11.13;;
55465;SDS011;41329;41.594;23.810;2022-07-29T01:05:03;11.30;;;10.70;;
55465;SDS011;41329;41.594;23.810;2022-07-29T01:07:31;11.57;;;10.90;;
55465;SDS011;41329;41.594;23.810;2022-07-29T01:10:03;11.60;;;10.98;;
55465;SDS011;41329;41.594;23.810;2022-07-29T01:12:29;11.25;;;10.75;;
55465;SDS011;41329;41.594;23.810;2022-07-29T01:14:59;11.80;;;11.00;;
55465;SDS011;41329;41.594;23.810;2022-07-29T01:25:40;11.30;;;10.70;;
55465;SDS011;41329;41.594;23.810;2022-07-29T01:31:13;11.05;;;10.35;;
55465;SDS011;41329;41.594;23.810;2022-07-29T01:33:45;11.38;;;10.70;;
55465;SDS011;41329;41.594;23.810;2022-07-29T01:36:18;11.18;;;10.25;;
55465;SDS011;41329;41.594;23.810;2022-07-29T01:39:14;11.18;;;10.68;;
55465;SDS011;41329;41.594;23.810;2022-07-29T01:42:00;11.43;;;10.82;;
55465;SDS011;41329;41.594;23.810;2022-07-29T01:47:19;11.32;;;10.82;;
55465;SDS011;41329;41.594;23.810;2022-07-29T01:49:50;11.90;;;11.20;;
55465;SDS011;41329;41.594;23.810;2022-07-29T01:52:23;12.18;;;11.57;;
55465;SDS011;41329;41.594;23.810;2022-07-29T01:55:07;11.63;;;10.82;;
55465;SDS011;41329;41.594;23.810;2022-07-29T01:57:38;12.70;;;12.10;;
55465;SDS011;41329;41.594;23.810;2022-07-29T02:00:05;11.98;;;11.38;;
55465;SDS011;41329;41.594;23.810;2022-07-29T02:02:32;12.98;;;12.18;;
55465;SDS011;41329;41.594;23.810;2022-07-29T02:05:00;12.35;;;11.63;;
55465;SDS011;41329;41.594;23.810;2022-07-29T02:07:28;12.38;;;11.77;;
55465;SDS011;41329;41.594;23.810;2022-07-29T02:09:56;13.43;;;12.57;;
55465;SDS011;41329;41.594;23.810;2022-07-29T02:12:23;11.43;;;10.93;;
55465;SDS011;41329;41.594;23.810;2022-07-29T02:14:51;12.80;;;12.02;;
55465;SDS011;41329;41.594;23.810;2022-07-29T02:17:26;12.60;;;11.73;;
55465;SDS011;41329;41.594;23.810;2022-07-29T02:19:56;11.60;;;11.10;;
55465;SDS011;41329;41.594;23.810;2022-07-29T02:22:24;11.88;;;11.18;;
55465;SDS011;41329;41.594;23.810;2022-07-29T02:24:53;12.00;;;11.40;;
55465;SDS011;41329;41.594;23.810;2022-07-29T02:27:20;13.25;;;12.43;;
55465;SDS011;41329;41.594;23.810;2022-07-29T02:29:47;13.05;;;12.35;;
55465;SDS011;41329;41.594;23.810;2022-07-29T02:32:15;11.93;;;11.32;;
55465;SDS011;41329;41.594;23.810;2022-07-29T02:34:42;12.93;;;12.02;;
55465;SDS011;41329;41.594;23.810;2022-07-29T02:37:10;13.02;;;12.23;;
55465;SDS011;41329;41.594;23.810;2022-07-29T02:39:37;12.95;;;12.15;;
55465;SDS011;41329;41.594;23.810;2022-07-29T02:42:07;12.57;;;11.98;;
55465;SDS011;41329;41.594;23.810;2022-07-29T02:44:34;12.15;;;11.55;;
55465;SDS011;41329;41.594;23.810;2022-07-29T02:47:10;12.45;;;11.77;;
55465;SDS011;41329;41.594;23.810;2022-07-29T02:49:45;13.30;;;12.60;;
55465;SDS011;41329;41.594;23.810;2022-07-29T02:57:20;12.63;;;12.02;;
55465;SDS011;41329;41.594;23.810;2022-07-29T03:00:07;12.70;;;11.75;;
55465;SDS011;41329;41.594;23.810;2022-07-29T03:02:39;13.13;;;12.25;;
55465;SDS011;41329;41.594;23.810;2022-07-29T03:05:08;12.20;;;11.35;;
55465;SDS011;41329;41.594;23.810;2022-07-29T03:07:35;12.35;;;11.65;;
55465;SDS011;41329;41.594;23.810;2022-07-29T03:10:02;12.95;;;12.25;;
55465;SDS011;41329;41.594;23.810;2022-07-29T03:12:29;12.32;;;11.73;;
55465;SDS011;41329;41.594;23.810;2022-07-29T03:14:56;12.00;;;11.40;;
55465;SDS011;41329;41.594;23.810;2022-07-29T03:17:24;12.30;;;11.70;;
55465;SDS011;41329;41.594;23.810;2022-07-29T03:19:50;12.57;;;11.98;;
55465;SDS011;41329;41.594;23.810;2022-07-29T03:22:15;12.63;;;12.00;;
55465;SDS011;41329;41.594;23.810;2022-07-29T03:24:41;12.75;;;12.13;;
55465;SDS011;41329;41.594;23.810;2022-07-29T03:27:07;13.65;;;12.60;;
55465;SDS011;41329;41.594;23.810;2022-07-29T03:29:32;12.38;;;11.68;;
55465;SDS011;41329;41.594;23.810;2022-07-29T03:31:58;12.68;;;11.98;;
55465;SDS011;41329;41.594;23.810;2022-07-29T03:34:23;11.82;;;11.23;;
55465;SDS011;41329;41.594;23.810;2022-07-29T03:36:49;13.30;;;12.60;;
55465;SDS011;41329;41.594;23.810;2022-07-29T03:39:15;12.70;;;11.88;;
55465;SDS011;41329;41.594;23.810;2022-07-29T03:41:46;13.77;;;12.93;;
55465;SDS011;41329;41.594;23.810;2022-07-29T03:44:15;13.77;;;13.07;;
55465;SDS011;41329;41.594;23.810;2022-07-29T03:46:43;13.73;;;12.60;;
55465;SDS011;41329;41.594;23.810;2022-07-29T03:49:11;13.95;;;13.15;;
55465;SDS011;41329;41.594;23.810;2022-07-29T03:51:39;13.05;;;11.93;;
55465;SDS011;41329;41.594;23.810;2022-07-29T03:54:04;12.73;;;12.02;;
55465;SDS011;41329;41.594;23.810;2022-07-29T03:56:32;14.07;;;13.23;;
55465;SDS011;41329;41.594;23.810;2022-07-29T03:59:00;14.20;;;13.50;;
55465;SDS011;41329;41.594;23.810;2022-07-29T04:01:28;13.63;;;12.32;;
55465;SDS011;41329;41.594;23.810;2022-07-29T04:03:55;14.55;;;13.55;;
55465;SDS011;41329;41.594;23.810;2022-07-29T04:06:21;13.98;;;13.10;;
55465;SDS011;41329;41.594;23.810;2022-07-29T04:08:46;14.85;;;13.85;;
55465;SDS011;41329;41.594;23.810;2022-07-29T04:11:11;13.23;;;12.63;;
55465;SDS011;41329;41.594;23.810;2022-07-29T04:13:38;13.57;;;12.70;;
55465;SDS011;41329;41.594;23.810;2022-07-29T04:16:03;13.43;;;12.65;;
55465;SDS011;41329;41.594;23.810;2022-07-29T04:18:29;13.45;;;12.65;;
55465;SDS011;41329;41.594;23.810;2022-07-29T04:20:54;13.68;;;12.98;;
55465;SDS011;41329;41.594;23.810;2022-07-29T04:23:20;12.98;;;12.27;;
55465;SDS011;41329;41.594;23.810;2022-07-29T04:25:45;14.10;;;13.30;;
55465;SDS011;41329;41.594;23.810;2022-07-29T04:28:11;13.38;;;12.68;;
55465;SDS011;41329;41.594;23.810;2022-07-29T04:30:36;14.50;;;13.60;;
55465;SDS011;41329;41.594;23.810;2022-07-29T04:33:03;14.43;;;13.57;;
55465;SDS011;41329;41.594;23.810;2022-07-29T04:35:30;14.32;;;13.18;;
55465;SDS011;41329;41.594;23.810;2022-07-29T04:37:56;14.07;;;13.38;;
55465;SDS011;41329;41.594;23.810;2022-07-29T04:40:21;16.05;;;14.82;;
55465;SDS011;41329;41.594;23.810;2022-07-29T04:42:47;17.52;;;15.48;;
55465;SDS011;41329;41.594;23.810;2022-07-29T04:45:12;15.98;;;15.02;;
55465;SDS011;41329;41.594;23.810;2022-07-29T04:47:38;16.52;;;15.02;;
55465;SDS011;41329;41.594;23.810;2022-07-29T04:50:03;16.33;;;15.43;;
55465;SDS011;41329;41.594;23.810;2022-07-29T04:52:30;15.90;;;15.00;;
55465;SDS011;41329;41.594;23.810;2022-07-29T04:54:56;16.08;;;15.02;;
55465;SDS011;41329;41.594;23.810;2022-07-29T04:57:21;15.95;;;15.02;;
55465;SDS011;41329;41.594;23.810;2022-07-29T04:59:47;17.65;;;15.98;;
55465;SDS011;41329;41.594;23.810;2022-07-29T05:02:13;15.48;;;14.05;;
55465;SDS011;41329;41.594;23.810;2022-07-29T05:04:39;15.80;;;14.73;;
55465;SDS011;41329;41.594;23.810;2022-07-29T05:07:04;15.57;;;14.73;;
55465;SDS011;41329;41.594;23.810;2022-07-29T05:09:29;15.40;;;14.60;;
55465;SDS011;41329;41.594;23.810;2022-07-29T05:11:57;14.43;;;13.82;;
55465;SDS011;41329;41.594;23.810;2022-07-29T05:14:22;14.55;;;13.70;;
55465;SDS011;41329;41.594;23.810;2022-07-29T05:16:48;15.77;;;14.85;;
55465;SDS011;41329;41.594;23.810;2022-07-29T05:19:16;16.98;;;15.88;;
55465;SDS011;41329;41.594;23.810;2022-07-29T05:21:41;15.10;;;14.35;;
55465;SDS011;41329;41.594;23.810;2022-07-29T05:24:07;14.57;;;13.77;;
55465;SDS011;41329;41.594;23.810;2022-07-29T05:26:33;15.18;;;14.27;;
55465;SDS011;41329;41.594;23.810;2022-07-29T05:28:58;15.07;;;14.32;;
55465;SDS011;41329;41.594;23.810;2022-07-29T05:31:24;15.50;;;14.35;;
55465;SDS011;41329;41.594;23.810;2022-07-29T05:33:49;15.85;;;15.13;;
55465;SDS011;41329;41.594;23.810;2022-07-29T05:36:15;16.35;;;15.35;;
55465;SDS011;41329;41.594;23.810;2022-07-29T05:38:40;15.27;;;14.57;;
55465;SDS011;41329;41.594;23.810;2022-07-29T05:41:06;16.30;;;15.07;;
55465;SDS011;41329;41.594;23.810;2022-07-29T05:43:31;16.25;;;15.32;;
55465;SDS011;41329;41.594;23.810;2022-07-29T05:45:57;15.75;;;14.80;;
55465;SDS011;41329;41.594;23.810;2022-07-29T05:48:23;17.17;;;15.80;;
55465;SDS011;41329;41.594;23.810;2022-07-29T05:50:49;16.90;;;15.68;;
55465;SDS011;41329;41.594;23.810;2022-07-29T05:53:15;16.15;;;15.25;;
55465;SDS011;41329;41.594;23.810;2022-07-29T05:55:41;16.20;;;15.20;;
55465;SDS011;41329;41.594;23.810;2022-07-29T05:58:06;16.25;;;15.18;;
55465;SDS011;41329;41.594;23.810;2022-07-29T06:00:32;16.25;;;15.25;;
55465;SDS011;41329;41.594;23.810;2022-07-29T06:02:57;16.25;;;14.80;;
55465;SDS011;41329;41.594;23.810;2022-07-29T06:05:23;15.68;;;14.75;;
55465;SDS011;41329;41.594;23.810;2022-07-29T06:07:48;14.88;;;13.55;;
55465;SDS011;41329;41.594;23.810;2022-07-29T06:10:13;14.43;;;13.30;;
55465;SDS011;41329;41.594;23.810;2022-07-29T06:12:40;14.90;;;13.68;;
55465;SDS011;41329;41.594;23.810;2022-07-29T06:15:05;15.80;;;14.93;;
55465;SDS011;41329;41.594;23.810;2022-07-29T06:17:31;15.77;;;14.15;;
55465;SDS011;41329;41.594;23.810;2022-07-29T06:19:57;15.52;;;14.63;;
55465;SDS011;41329;41.594;23.810;2022-07-29T06:22:22;14.90;;;13.93;;
55465;SDS011;41329;41.594;23.810;2022-07-29T06:24:48;14.82;;;13.82;;
55465;SDS011;41329;41.594;23.810;2022-07-29T06:27:14;15.95;;;15.05;;
55465;SDS011;41329;41.594;23.810;2022-07-29T06:29:39;16.73;;;15.70;;
55465;SDS011;41329;41.594;23.810;2022-07-29T06:32:05;16.30;;;15.40;;
55465;SDS011;41329;41.594;23.810;2022-07-29T06:34:30;15.80;;;14.85;;
55465;SDS011;41329;41.594;23.810;2022-07-29T06:36:56;15.32;;;14.43;;
55465;SDS011;41329;41.594;23.810;2022-07-29T06:39:21;15.23;;;14.32;;
55465;SDS011;41329;41.594;23.810;2022-07-29T06:41:47;15.38;;;14.48;;
55465;SDS011;41329;41.594;23.810;2022-07-29T06:44:14;14.77;;;13.68;;
55465;SDS011;41329;41.594;23.810;2022-07-29T06:46:40;16.02;;;14.88;;
55465;SDS011;41329;41.594;23.810;2022-07-29T06:49:06;15.40;;;14.55;;
55465;SDS011;41329;41.594;23.810;2022-07-29T06:51:32;13.60;;;12.70;;
55465;SDS011;41329;41.594;23.810;2022-07-29T06:53:58;15.30;;;14.30;;
55465;SDS011;41329;41.594;23.810;2022-07-29T06:56:24;12.77;;;12.05;;
55465;SDS011;41329;41.594;23.810;2022-07-29T06:58:50;13.40;;;12.70;;
55465;SDS011;41329;41.594;23.810;2022-07-29T07:01:15;14.55;;;13.68;;
55465;SDS011;41329;41.594;23.810;2022-07-29T07:03:41;13.20;;;12.38;;
55465;SDS011;41329;41.594;23.810;2022-07-29T07:06:07;13.93;;;12.95;;
55465;SDS011;41329;41.594;23.810;2022-07-29T07:08:32;14.18;;;12.98;;
55465;SDS011;41329;41.594;23.810;2022-07-29T07:10:58;13.68;;;13.05;;
55465;SDS011;41329;41.594;23.810;2022-07-29T07:13:24;13.82;;;12.88;;
55465;SDS011;41329;41.594;23.810;2022-07-29T07:15:50;13.30;;;12.60;;
55465;SDS011;41329;41.594;23.810;2022-07-29T07:18:17;12.52;;;11.82;;
55465;SDS011;41329;41.594;23.810;2022-07-29T07:20:43;13.15;;;12.48;;
55465;SDS011;41329;41.594;23.810;2022-07-29T07:23:09;12.32;;;11.50;;
55465;SDS011;41329;41.594;23.810;2022-07-29T07:25:36;13.55;;;12.52;;
55465;SDS011;41329;41.594;23.810;2022-07-29T07:28:02;12.57;;;11.82;;
55465;SDS011;41329;41.594;23.810;2022-07-29T07:30:28;12.93;;;12.05;;
55465;SDS011;41329;41.594;23.810;2022-07-29T07:32:54;11.98;;;11.07;;
55465;SDS011;41329;41.594;23.810;2022-07-29T07:35:20;13.48;;;12.30;;
55465;SDS011;41329;41.594;23.810;2022-07-29T07:37:46;13.40;;;12.52;;
55465;SDS011;41329;41.594;23.810;2022-07-29T07:40:11;12.55;;;11.90;;
55465;SDS011;41329;41.594;23.810;2022-07-29T07:42:37;12.45;;;11.75;;
55465;SDS011;41329;41.594;23.810;2022-07-29T07:45:04;11.98;;;11.15;;
55465;SDS011;41329;41.594;23.810;2022-07-29T07:47:31;12.43;;;11.63;;
55465;SDS011;41329;41.594;23.810;2022-07-29T07:49:57;12.68;;;11.90;;
55465;SDS011;41329;41.594;23.810;2022-07-29T07:52:22;11.15;;;10.65;;
55465;SDS011;41329;41.594;23.810;2022-07-29T07:54:48;12.38;;;11.75;;
55465;SDS011;41329;41.594;23.810;2022-07-29T07:57:15;12.63;;;12.07;;
55465;SDS011;41329;41.594;23.810;2022-07-29T07:59:41;11.32;;;10.73;;
55465;SDS011;41329;41.594;23.810;2022-07-29T08:02:07;12.60;;;12.00;;
55465;SDS011;41329;41.594;23.810;2022-07-29T08:04:32;12.98;;;12.23;;
55465;SDS011;41329;41.594;23.810;2022-07-29T08:06:58;12.55;;;11.85;;
55465;SDS011;41329;41.594;23.810;2022-07-29T08:09:25;12.82;;;12.10;;
55465;SDS011;41329;41.594;23.810;2022-07-29T08:11:52;12.50;;;11.73;;
55465;SDS011;41329;41.594;23.810;2022-07-29T08:14:18;12.02;;;11.30;;
55465;SDS011;41329;41.594;23.810;2022-07-29T08:16:43;12.55;;;11.65;;
55465;SDS011;41329;41.594;23.810;2022-07-29T08:19:09;11.80;;;11.20;;
55465;SDS011;41329;41.594;23.810;2022-07-29T08:21:35;12.20;;;11.50;;
55465;SDS011;41329;41.594;23.810;2022-07-29T08:24:01;12.23;;;11.60;;
55465;SDS011;41329;41.594;23.810;2022-07-29T08:26:45;12.50;;;11.73;;
55465;SDS011;41329;41.594;23.810;2022-07-29T08:29:10;12.20;;;11.60;;
55465;SDS011;41329;41.594;23.810;2022-07-29T08:31:36;12.60;;;11.32;;
55465;SDS011;41329;41.594;23.810;2022-07-29T08:34:03;12.73;;;11.93;;
55465;SDS011;41329;41.594;23.810;2022-07-29T08:36:29;13.13;;;12.43;;
55465;SDS011;41329;41.594;23.810;2022-07-29T08:38:55;11.15;;;10.50;;
55465;SDS011;41329;41.594;23.810;2022-07-29T08:41:22;12.70;;;11.80;;
55465;SDS011;41329;41.594;23.810;2022-07-29T08:43:48;11.98;;;11.27;;
55465;SDS011;41329;41.594;23.810;2022-07-29T08:46:14;12.23;;;11.20;;
55465;SDS011;41329;41.594;23.810;2022-07-29T08:48:42;12.00;;;11.27;;
55465;SDS011;41329;41.594;23.810;2022-07-29T08:51:08;10.80;;;10.18;;
55465;SDS011;41329;41.594;23.810;2022-07-29T08:53:37;11.15;;;10.55;;
55465;SDS011;41329;41.594;23.810;2022-07-29T08:56:06;9.80;;;9.17;;
55465;SDS011;41329;41.594;23.810;2022-07-29T08:58:32;10.30;;;9.77;;
55465;SDS011;41329;41.594;23.810;2022-07-29T09:00:59;10.43;;;9.82;;
55465;SDS011;41329;41.594;23.810;2022-07-29T09:03:29;10.40;;;9.90;;
55465;SDS011;41329;41.594;23.810;2022-07-29T09:05:56;10.18;;;9.57;;
55465;SDS011;41329;41.594;23.810;2022-07-29T09:08:26;9.88;;;9.35;;
55465;SDS011;41329;41.594;23.810;2022-07-29T09:10:52;9.82;;;9.15;;
55465;SDS011;41329;41.594;23.810;2022-07-29T09:13:18;9.60;;;9.20;;
55465;SDS011;41329;41.594;23.810;2022-07-29T09:15:44;9.43;;;8.93;;
55465;SDS011;41329;41.594;23.810;2022-07-29T09:18:10;9.07;;;8.57;;
55465;SDS011;41329;41.594;23.810;2022-07-29T09:20:35;8.18;;;7.65;;
55465;SDS011;41329;41.594;23.810;2022-07-29T09:23:19;8.55;;;8.07;;
55465;SDS011;41329;41.594;23.810;2022-07-29T09:25:45;8.20;;;7.78;;
55465;SDS011;41329;41.594;23.810;2022-07-29T09:28:14;7.70;;;7.20;;
55465;SDS011;41329;41.594;23.810;2022-07-29T09:33:19;8.70;;;8.30;;
55465;SDS011;41329;41.594;23.810;2022-07-29T09:35:57;8.43;;;7.82;;
55465;SDS011;41329;41.594;23.810;2022-07-29T09:38:31;8.73;;;7.75;;
55465;SDS011;41329;41.594;23.810;2022-07-29T09:40:58;7.97;;;7.47;;
55465;SDS011;41329;41.594;23.810;2022-07-29T09:43:27;8.27;;;7.75;;
55465;SDS011;41329;41.594;23.810;2022-07-29T09:45:53;9.02;;;8.38;;
55465;SDS011;41329;41.594;23.810;2022-07-29T09:48:20;7.57;;;7.18;;
55465;SDS011;41329;41.594;23.810;2022-07-29T09:50:47;7.55;;;7.15;;
55465;SDS011;41329;41.594;23.810;2022-07-29T09:56:02;8.13;;;7.45;;
55465;SDS011;41329;41.594;23.810;2022-07-29T09:58:28;8.15;;;7.72;;
55465;SDS011;41329;41.594;23.810;2022-07-29T10:00:54;7.60;;;7.10;;
55465;SDS011;41329;41.594;23.810;2022-07-29T10:03:21;7.25;;;6.95;;
55465;SDS011;41329;41.594;23.810;2022-07-29T10:06:09;8.23;;;7.72;;
55465;SDS011;41329;41.594;23.810;2022-07-29T10:08:34;7.55;;;7.15;;
55465;SDS011;41329;41.594;23.810;2022-07-29T10:13:35;8.25;;;7.57;;
55465;SDS011;41329;41.594;23.810;2022-07-29T10:16:01;8.30;;;7.90;;
55465;SDS011;41329;41.594;23.810;2022-07-29T10:18:27;7.68;;;7.38;;
55465;SDS011;41329;41.594;23.810;2022-07-29T10:20:53;7.78;;;7.28;;
55465;SDS011;41329;41.594;23.810;2022-07-29T10:23:19;7.43;;;7.13;;
55465;SDS011;41329;41.594;23.810;2022-07-29T10:25:45;7.32;;;6.80;;
55465;SDS011;41329;41.594;23.810;2022-07-29T10:28:11;7.80;;;7.30;;
55465;SDS011;41329;41.594;23.810;2022-07-29T10:30:36;7.53;;;7.22;;
55465;SDS011;41329;41.594;23.810;2022-07-29T10:38:10;6.90;;;6.60;;
55465;SDS011;41329;41.594;23.810;2022-07-29T10:43:54;6.68;;;6.38;;
55465;SDS011;41329;41.594;23.810;2022-07-29T10:46:23;6.38;;;6.05;;
55465;SDS011;41329;41.594;23.810;2022-07-29T10:59:38;5.72;;;5.43;;
55465;SDS011;41329;41.594;23.810;2022-07-29T11:02:40;5.97;;;5.57;;
55465;SDS011;41329;41.594;23.810;2022-07-29T11:05:02;4.82;;;4.63;;
55465;SDS011;41329;41.594;23.810;2022-07-29T11:07:30;5.93;;;5.63;;
55465;SDS011;41329;41.594;23.810;2022-07-29T11:15:06;4.45;;;4.25;;
55465;SDS011;41329;41.594;23.810;2022-07-29T11:33:55;4.22;;;4.00;;
55465;SDS011;41329;41.594;23.810;2022-07-29T11:36:21;3.90;;;3.70;;
55465;SDS011;41329;41.594;23.810;2022-07-29T11:38:46;4.30;;;4.00;;
55465;SDS011;41329;41.594;23.810;2022-07-29T11:41:22;4.05;;;3.85;;
55465;SDS011;41329;41.594;23.810;2022-07-29T11:46:42;4.22;;;4.00;;
55465;SDS011;41329;41.594;23.810;2022-07-29T11:49:21;5.00;;;4.68;;
55465;SDS011;41329;41.594;23.810;2022-07-29T11:51:55;3.47;;;3.38;;
55465;SDS011;41329;41.594;23.810;2022-07-29T11:54:26;3.95;;;3.78;;
55465;SDS011;41329;41.594;23.810;2022-07-29T11:56:57;4.13;;;3.92;;
55465;SDS011;41329;41.594;23.810;2022-07-29T11:59:23;3.83;;;3.63;;
55465;SDS011;41329;41.594;23.810;2022-07-29T12:01:53;3.83;;;3.53;;
55465;SDS011;41329;41.594;23.810;2022-07-29T12:04:23;4.30;;;4.00;;
55465;SDS011;41329;41.594;23.810;2022-07-29T12:06:53;3.95;;;3.75;;
55465;SDS011;41329;41.594;23.810;2022-07-29T12:09:19;4.22;;;4.03;;
55465;SDS011;41329;41.594;23.810;2022-07-29T12:11:46;4.13;;;3.92;;
55465;SDS011;41329;41.594;23.810;2022-07-29T12:14:28;3.80;;;3.60;;
55465;SDS011;41329;41.594;23.810;2022-07-29T12:16:55;4.75;;;4.45;;
55465;SDS011;41329;41.594;23.810;2022-07-29T12:19:22;4.50;;;4.30;;
55465;SDS011;41329;41.594;23.810;2022-07-29T12:21:48;4.60;;;4.40;;
55465;SDS011;41329;41.594;23.810;2022-07-29T12:24:18;4.68;;;4.45;;
55465;SDS011;41329;41.594;23.810;2022-07-29T12:26:53;4.55;;;4.25;;
55465;SDS011;41329;41.594;23.810;2022-07-29T12:29:20;4.40;;;4.20;;
55465;SDS011;41329;41.594;23.810;2022-07-29T12:31:50;4.78;;;4.47;;
55465;SDS011;41329;41.594;23.810;2022-07-29T12:34:19;4.65;;;4.45;;
55465;SDS011;41329;41.594;23.810;2022-07-29T12:36:47;4.65;;;4.35;;
55465;SDS011;41329;41.594;23.810;2022-07-29T12:39:14;4.97;;;4.78;;
55465;SDS011;41329;41.594;23.810;2022-07-29T12:41:41;5.75;;;5.35;;
55465;SDS011;41329;41.594;23.810;2022-07-29T12:44:06;5.65;;;5.35;;
55465;SDS011;41329;41.594;23.810;2022-07-29T12:46:32;5.15;;;4.85;;
55465;SDS011;41329;41.594;23.810;2022-07-29T12:48:59;9.23;;;5.50;;
55465;SDS011;41329;41.594;23.810;2022-07-29T12:51:29;5.90;;;5.50;;
55465;SDS011;41329;41.594;23.810;2022-07-29T12:54:06;6.22;;;5.85;;
55465;SDS011;41329;41.594;23.810;2022-07-29T12:56:38;5.60;;;5.20;;
55465;SDS011;41329;41.594;23.810;2022-07-29T12:59:17;5.60;;;5.38;;
55465;SDS011;41329;41.594;23.810;2022-07-29T13:01:45;5.22;;;4.82;;
55465;SDS011;41329;41.594;23.810;2022-07-29T13:04:24;5.63;;;5.25;;
55465;SDS011;41329;41.594;23.810;2022-07-29T13:06:57;5.55;;;5.35;;
55465;SDS011;41329;41.594;23.810;2022-07-29T13:09:44;5.13;;;4.93;;
55465;SDS011;41329;41.594;23.810;2022-07-29T13:12:13;6.10;;;5.50;;
55465;SDS011;41329;41.594;23.810;2022-07-29T13:14:40;5.95;;;5.65;;
55465;SDS011;41329;41.594;23.810;2022-07-29T13:19:51;5.78;;;5.38;;
55465;SDS011;41329;41.594;23.810;2022-07-29T13:22:22;6.50;;;6.20;;
55465;SDS011;41329;41.594;23.810;2022-07-29T13:24:49;6.22;;;5.82;;
55465;SDS011;41329;41.594;23.810;2022-07-29T13:29:57;6.45;;;6.10;;
55465;SDS011;41329;41.594;23.810;2022-07-29T13:32:25;6.20;;;5.90;;
55465;SDS011;41329;41.594;23.810;2022-07-29T13:34:52;5.93;;;5.63;;
55465;SDS011;41329;41.594;23.810;2022-07-29T13:37:18;5.82;;;5.43;;
55465;SDS011;41329;41.594;23.810;2022-07-29T13:39:44;6.10;;;5.80;;
55465;SDS011;41329;41.594;23.810;2022-07-29T13:42:10;5.75;;;5.50;;
55465;SDS011;41329;41.594;23.810;2022-07-29T13:44:38;5.85;;;5.55;;
55465;SDS011;41329;41.594;23.810;2022-07-29T13:47:05;5.47;;;5.25;;
55465;SDS011;41329;41.594;23.810;2022-07-29T13:49:31;5.35;;;5.15;;
55465;SDS011;41329;41.594;23.810;2022-07-29T13:51:57;5.15;;;4.95;;
55465;SDS011;41329;41.594;23.810;2022-07-29T13:54:22;5.72;;;5.38;;
55465;SDS011;41329;41.594;23.810;2022-07-29T13:56:49;5.70;;;5.40;;
55465;SDS011;41329;41.594;23.810;2022-07-29T13:59:15;5.05;;;4.75;;
55465;SDS011;41329;41.594;23.810;2022-07-29T14:01:41;4.88;;;4.68;;
55465;SDS011;41329;41.594;23.810;2022-07-29T14:04:07;5.30;;;5.10;;
55465;SDS011;41329;41.594;23.810;2022-07-29T14:30:11;6.15;;;5.85;;
55465;SDS011;41329;41.594;23.810;2022-07-29T14:32:37;5.82;;;5.43;;
55465;SDS011;41329;41.594;23.810;2022-07-29T14:35:03;5.80;;;5.43;;
55465;SDS011;41329;41.594;23.810;2022-07-29T14:37:29;5.63;;;5.43;;
55465;SDS011;41329;41.594;23.810;2022-07-29T14:39:55;5.95;;;5.70;;
55465;SDS011;41329;41.594;23.810;2022-07-29T14:42:24;5.60;;;5.30;;
55465;SDS011;41329;41.594;23.810;2022-07-29T14:44:50;5.38;;;5.03;;
55465;SDS011;41329;41.594;23.810;2022-07-29T14:47:15;5.10;;;4.90;;
55465;SDS011;41329;41.594;23.810;2022-07-29T14:49:40;5.78;;;5.38;;
55465;SDS011;41329;41.594;23.810;2022-07-29T14:52:06;5.18;;;4.93;;
55465;SDS011;41329;41.594;23.810;2022-07-29T14:54:31;5.30;;;4.90;;
55465;SDS011;41329;41.594;23.810;2022-07-29T14:56:57;4.93;;;4.72;;
55465;SDS011;41329;41.594;23.810;2022-07-29T14:59:22;5.68;;;5.18;;
55465;SDS011;41329;41.594;23.810;2022-07-29T15:01:48;5.18;;;4.68;;
55465;SDS011;41329;41.594;23.810;2022-07-29T15:04:15;4.40;;;4.10;;
55465;SDS011;41329;41.594;23.810;2022-07-29T15:06:41;4.95;;;4.65;;
55465;SDS011;41329;41.594;23.810;2022-07-29T15:09:08;8.52;;;4.53;;
55465;SDS011;41329;41.594;23.810;2022-07-29T15:11:33;4.80;;;4.50;;
55465;SDS011;41329;41.594;23.810;2022-07-29T15:13:59;5.28;;;5.07;;
55465;SDS011;41329;41.594;23.810;2022-07-29T15:16:24;4.95;;;4.75;;
55465;SDS011;41329;41.594;23.810;2022-07-29T15:18:50;6.25;;;5.93;;
55465;SDS011;41329;41.594;23.810;2022-07-29T15:21:15;5.40;;;5.20;;
55465;SDS011;41329;41.594;23.810;2022-07-29T15:23:41;4.47;;;4.18;;
55465;SDS011;41329;41.594;23.810;2022-07-29T15:26:06;4.85;;;4.55;;
55465;SDS011;41329;41.594;23.810;2022-07-29T15:28:31;4.75;;;4.45;;
55465;SDS011;41329;41.594;23.810;2022-07-29T15:30:57;5.18;;;4.90;;
55465;SDS011;41329;41.594;23.810;2022-07-29T15:33:23;5.05;;;4.75;;
55465;SDS011;41329;41.594;23.810;2022-07-29T15:35:48;4.55;;;4.35;;
55465;SDS011;41329;41.594;23.810;2022-07-29T15:38:15;4.47;;;4.18;;
55465;SDS011;41329;41.594;23.810;2022-07-29T15:40:41;4.18;;;3.90;;
55465;SDS011;41329;41.594;23.810;2022-07-29T15:43:08;3.85;;;3.65;;
55465;SDS011;41329;41.594;23.810;2022-07-29T15:45:37;3.92;;;3.63;;
55465;SDS011;41329;41.594;23.810;2022-07-29T15:48:04;4.22;;;4.03;;
55465;SDS011;41329;41.594;23.810;2022-07-29T15:50:31;4.60;;;4.40;;
55465;SDS011;41329;41.594;23.810;2022-07-29T15:52:57;4.47;;;4.28;;
55465;SDS011;41329;41.594;23.810;2022-07-29T15:55:22;4.90;;;4.65;;
55465;SDS011;41329;41.594;23.810;2022-07-29T15:57:48;5.10;;;4.70;;
55465;SDS011;41329;41.594;23.810;2022-07-29T16:00:13;5.82;;;5.28;;